Pagrindinis puslapis
METAR-TAF:

METAR-TAF

Oro uostai :

Port Sudan, Sudanas

platuma: 19-26N, ilguma: 037-14E, Aukštis: 138 m

METAR: trūkstamas

Laikas: 02:05 (00:05 UTC)

Prognozė

Ataskaita buvo paskelbta 1 valandą ir 5 minutes, ne 23:00 UTC
Prognozė galioja nuo 08 metu 00 UTC su 09 metu 06 UTC
Vėjas 10 kt iš Šiaurės
Matomumas 10 km arba daugiau
Išsisklaidę debesys ne aukštis 13000 ft
Tapsmas
nuo 08 metu 09 UTC su 08 metu 11 UTC
Vėjas 8 kt iš Vakarų/Pietvakarių su gūsio iki 20 kt

TAF: HSPN 072300Z 0800/0906 01010KT 9999 SCT130 BECMG 0809/0811 24008G20KT

Orai ataskaitas ir orų prognozės (METAR, TAF).

turimą stotys yra geltonos ir raudonos taškus žemėlapyje.

Perkelti pele per norėdami pamatyti stoties vardą.

Tada spustelėkite, norėdami matyti oro stebėjimo ir prognozės.

Norėdami pakeisti žemėlapį: spustelėkite ant žalios mygtukų su juodo kryžiaus žemyn,; žalią mygtuką su brūkšneliu, jei norite nutolinti; arba žalių rodyklių gretimoms žemėlapius.


METAR-TAF: